Time;durP1;ratioP1;P1;durP2;ratioP2;P2;SDS_P1;SDS_P2;PMS_P1;PMS_P2;Temp;Humidity;BMP_temperature;BMP_pressure;BME280_temperature;BME280_humidity;BME280_pressure;Samples;Min_cycle;Max_cycle;Signal;HPM_P1;HPM_P2
2022/01/06 00:01:24;;;;;;;3.40;1.25;;;;;;;12.67;49.62;101313.00;5078269;28;20165;-58
2022/01/06 00:03:52;;;;;;;1.88;1.35;;;;;;;12.66;49.88;101316.66;5096349;28;20036;-59
2022/01/06 00:06:18;;;;;;;4.38;1.90;;;;;;;12.64;50.88;101318.63;5096373;28;20036;-58
2022/01/06 00:08:44;;;;;;;8.98;1.08;;;;;;;12.59;50.63;101307.44;5077709;28;20040;-58
2022/01/06 00:11:11;;;;;;;9.25;1.23;;;;;;;12.60;50.79;101323.41;5095591;28;20028;-58
2022/01/06 00:13:56;;;;;;;7.47;1.40;;;;;;;12.59;49.99;101326.25;5078445;28;20397;-59
2022/01/06 00:24:17;;;;;;;8.52;1.20;;;;;;;12.60;50.26;101341.38;5095777;28;20063;-59
2022/01/06 00:26:43;;;;;;;3.72;1.02;;;;;;;12.59;50.31;101342.38;5095997;28;20032;-59
2022/01/06 00:29:08;;;;;;;4.65;1.25;;;;;;;12.56;50.16;101339.94;5061260;28;20066;-59
2022/01/06 00:31:34;;;;;;;6.80;1.90;;;;;;;12.56;50.14;101348.81;5095713;28;20130;-58
2022/01/06 00:34:00;;;;;;;5.30;1.95;;;;;;;12.61;50.00;101356.50;5072714;28;20032;-58
2022/01/06 00:36:25;;;;;;;8.75;1.42;;;;;;;12.62;49.21;101352.81;5065117;28;20028;-58
2022/01/06 00:38:50;;;;;;;3.45;1.00;;;;;;;12.64;49.41;101362.50;5085056;28;20481;-59
2022/01/06 00:41:16;;;;;;;6.65;1.50;;;;;;;12.65;49.20;101357.94;5085003;28;20392;-58
2022/01/06 00:43:42;;;;;;;5.38;1.25;;;;;;;12.64;49.29;101357.13;5063363;28;20028;-57
2022/01/06 00:46:07;;;;;;;5.35;1.15;;;;;;;12.63;49.70;101355.41;5083773;28;20053;-58
2022/01/06 00:48:33;;;;;;;11.15;1.10;;;;;;;12.58;49.34;101356.78;5085293;28;20113;-58
2022/01/06 00:50:58;;;;;;;3.63;1.60;;;;;;;12.59;49.38;101358.50;5055587;28;20047;-58
2022/01/06 00:53:23;;;;;;;3.22;1.05;;;;;;;12.56;49.03;101358.75;5074292;28;20044;-58
2022/01/06 00:55:49;;;;;;;8.55;1.75;;;;;;;12.53;50.16;101365.22;5074198;28;20039;-58
2022/01/06 00:58:15;;;;;;;10.68;1.40;;;;;;;12.52;50.29;101362.66;5074068;28;20033;-58
2022/01/06 01:00:41;;;;;;;6.88;1.90;;;;;;;12.49;50.02;101358.41;5074078;28;20039;-58
2022/01/06 01:03:15;;;;;;;5.93;1.40;;;;;;;12.49;50.21;101361.09;5074011;28;20393;-59
2022/01/06 01:05:42;;;;;;;5.72;1.20;;;;;;;12.49;49.37;101360.22;5074169;28;20493;-58
2022/01/06 01:08:08;;;;;;;6.15;1.63;;;;;;;12.49;49.66;101357.53;5073820;28;20032;-58
2022/01/06 01:10:34;;;;;;;6.32;1.00;;;;;;;12.46;49.29;101363.16;5055990;28;20040;-58
2022/01/06 01:12:59;;;;;;;7.03;1.30;;;;;;;12.46;49.41;101369.41;5074120;28;20028;-59
2022/01/06 01:15:27;;;;;;;8.27;0.93;;;;;;;12.45;48.86;101369.53;5073866;28;20088;-58
2022/01/06 01:17:52;;;;;;;5.45;1.23;;;;;;;12.42;49.11;101367.09;5056573;28;20033;-57
2022/01/06 01:20:18;;;;;;;4.07;1.38;;;;;;;12.39;49.18;101367.34;5074552;28;20031;-58
2022/01/06 01:22:45;;;;;;;5.63;1.13;;;;;;;12.36;49.87;101375.66;5073806;28;20044;-58
2022/01/06 01:25:11;;;;;;;3.65;0.82;;;;;;;12.32;49.42;101377.75;5056856;28;20485;-59
2022/01/06 01:27:40;;;;;;;4.43;1.10;;;;;;;12.30;49.07;101374.34;5040114;28;20106;-56
2022/01/06 01:30:12;;;;;;;5.47;1.42;;;;;;;12.28;49.90;101371.78;5040839;28;20065;-59
2022/01/06 01:32:40;;;;;;;2.83;0.90;;;;;;;12.25;48.99;101381.94;5074389;28;20037;-59
2022/01/06 01:35:08;;;;;;;6.43;0.80;;;;;;;12.24;49.32;101383.75;5074302;28;20362;-57
2022/01/06 01:37:35;;;;;;;3.97;1.00;;;;;;;12.23;49.73;101384.72;5074127;28;20477;-58
2022/01/06 01:40:01;;;;;;;4.43;1.10;;;;;;;12.21;49.01;101391.22;5084595;28;20040;-58
2022/01/06 01:42:27;;;;;;;6.03;1.38;;;;;;;12.20;49.17;101378.75;5094453;28;20092;-59
2022/01/06 01:44:53;;;;;;;9.95;1.80;;;;;;;12.17;50.00;101395.16;5076340;28;20113;-59
2022/01/06 01:47:32;;;;;;;11.43;1.20;;;;;;;12.16;49.86;101399.66;5094375;28;20039;-58
2022/01/06 01:50:21;;;;;;;4.10;0.70;;;;;;;12.14;49.41;101406.13;5094491;28;20489;-59
2022/01/06 01:52:50;;;;;;;5.25;1.50;;;;;;;12.11;49.41;101407.25;5093785;28;20040;-56
2022/01/06 01:55:18;;;;;;;7.47;1.27;;;;;;;12.08;48.72;101407.50;5094659;28;20381;-55
2022/01/06 01:57:44;;;;;;;8.10;2.08;;;;;;;12.05;49.64;101402.38;5094520;28;20122;-59
2022/01/06 02:00:11;;;;;;;4.60;1.52;;;;;;;12.02;49.24;101410.66;5076216;28;20491;-58
2022/01/06 02:02:37;;;;;;;7.80;1.50;;;;;;;11.96;49.51;101400.41;5094295;28;20064;-58
2022/01/06 02:05:03;;;;;;;7.82;2.35;;;;;;;11.98;49.58;101411.88;5094375;28;20081;-58
2022/01/06 02:07:29;;;;;;;9.38;1.63;;;;;;;11.95;48.76;101412.13;5075847;28;20427;-59
2022/01/06 02:09:54;;;;;;;8.07;1.20;;;;;;;11.92;49.31;101412.38;5094277;28;20036;-56
2022/01/06 02:12:28;;;;;;;4.07;1.20;;;;;;;11.89;49.13;101415.28;5094100;28;20040;-59
2022/01/06 02:14:53;;;;;;;3.58;0.95;;;;;;;11.86;48.81;101412.88;5076258;28;20200;-56
2022/01/06 02:17:19;;;;;;;7.38;1.48;;;;;;;11.85;49.23;101415.69;5094285;28;20086;-56
2022/01/06 02:19:58;;;;;;;5.03;1.30;;;;;;;11.82;49.65;101421.28;5075934;28;20051;-58
2022/01/06 02:22:24;;;;;;;15.13;1.80;;;;;;;11.78;48.87;101425.22;5093967;28;20047;-59
2022/01/06 02:24:50;;;;;;;7.07;1.48;;;;;;;11.76;48.93;101429.81;5076219;28;20036;-55
2022/01/06 02:27:16;;;;;;;9.80;1.73;;;;;;;11.73;49.48;101428.25;5075657;28;20027;-59
2022/01/06 02:29:43;;;;;;;6.68;1.70;;;;;;;11.61;48.94;101415.78;5075794;28;20032;-59
2022/01/06 02:32:10;;;;;;;9.50;1.50;;;;;;;11.70;48.82;101433.03;5075632;28;20448;-56
2022/01/06 02:34:35;;;;;;;6.93;1.70;;;;;;;11.68;49.35;101430.41;5097321;28;20062;-56
2022/01/06 02:37:02;;;;;;;8.82;1.45;;;;;;;11.65;49.00;101431.50;5100296;28;20059;-56
2022/01/06 02:39:27;;;;;;;9.70;1.50;;;;;;;11.63;49.30;101432.59;5082334;28;20059;-56
2022/01/06 02:41:53;;;;;;;8.40;2.00;;;;;;;11.62;49.73;101428.19;5082415;28;20044;-55
2022/01/06 02:44:20;;;;;;;5.97;2.28;;;;;;;11.60;49.35;101432.84;5082590;28;20113;-56
2022/01/06 02:46:45;;;;;;;6.22;1.15;;;;;;;11.59;49.51;101433.81;5100697;28;20054;-57
2022/01/06 02:49:12;;;;;;;10.38;1.45;;;;;;;11.57;49.53;101427.72;5100574;28;20032;-56
2022/01/06 02:51:39;;;;;;;10.40;1.63;;;;;;;11.54;49.13;101428.81;5100725;28;20078;-56
2022/01/06 02:54:05;;;;;;;5.10;1.33;;;;;;;11.52;49.56;101421.88;5101070;28;20393;-56
2022/01/06 02:56:32;;;;;;;5.78;1.33;;;;;;;11.52;48.76;101427.22;5100597;28;20036;-57
2022/01/06 02:58:57;;;;;;;7.13;1.48;;;;;;;11.49;49.20;101416.75;5100607;28;20118;-56
2022/01/06 03:01:23;;;;;;;5.43;1.85;;;;;;;11.45;49.81;101417.94;5100676;28;20477;-55
2022/01/06 03:03:48;;;;;;;5.28;1.67;;;;;;;11.45;48.53;101423.31;5100605;28;20081;-57
2022/01/06 03:06:13;;;;;;;7.32;1.70;;;;;;;11.40;49.40;101426.34;5082355;28;20046;-56
2022/01/06 03:08:39;;;;;;;4.90;1.23;;;;;;;11.38;49.32;101422.09;5115908;28;20520;-57
2022/01/06 03:11:04;;;;;;;14.43;1.88;;;;;;;11.35;49.35;101431.22;5082078;28;20036;-56
2022/01/06 03:13:29;;;;;;;9.02;1.23;;;;;;;11.32;49.14;101433.28;5100025;28;20028;-56
2022/01/06 03:15:56;;;;;;;3.33;1.17;;;;;;;11.29;49.23;101433.53;5100351;28;20476;-55
2022/01/06 03:18:21;;;;;;;3.20;1.55;;;;;;;11.23;49.67;101431.31;5082522;28;20025;-56
2022/01/06 03:20:46;;;;;;;9.60;1.85;;;;;;;11.23;48.73;101439.34;5082034;28;20050;-55
2022/01/06 03:23:12;;;;;;;7.32;1.33;;;;;;;11.20;49.18;101436.91;5100187;28;20077;-55
2022/01/06 03:25:37;;;;;;;9.73;1.50;;;;;;;11.17;48.80;101439.84;5065405;28;20036;-55
2022/01/06 03:28:03;;;;;;;5.20;1.52;;;;;;;11.15;49.01;101441.78;5100321;28;20040;-57
2022/01/06 03:30:28;;;;;;;5.05;0.98;;;;;;;11.11;48.98;101436.66;5065382;28;20039;-56
2022/01/06 03:32:54;;;;;;;7.43;1.75;;;;;;;11.09;49.10;101454.69;5100320;28;20040;-57
2022/01/06 03:35:21;;;;;;;5.85;1.20;;;;;;;11.07;49.11;101448.59;5100125;28;20392;-56
2022/01/06 03:37:47;;;;;;;8.15;1.58;;;;;;;11.03;48.63;101448.94;5100063;28;20024;-55
2022/01/06 03:40:12;;;;;;;9.45;1.42;;;;;;;11.05;48.84;101453.19;5100025;28;20047;-55
2022/01/06 03:42:38;;;;;;;7.15;1.52;;;;;;;11.05;48.90;101461.25;5082268;28;20024;-56
2022/01/06 03:45:06;;;;;;;6.78;1.42;;;;;;;10.96;48.49;101451.25;5064984;28;20036;-59
2022/01/06 03:47:32;;;;;;;10.10;1.52;;;;;;;10.98;49.13;101468.06;5096394;28;20020;-55
2022/01/06 03:49:57;;;;;;;3.85;1.88;;;;;;;10.96;49.17;101470.00;5112309;28;20054;-55
2022/01/06 03:52:22;;;;;;;6.53;1.60;;;;;;;10.92;49.13;101468.50;5096839;28;20067;-56
2022/01/06 03:54:48;;;;;;;14.18;2.58;;;;;;;10.96;49.36;101474.50;5078755;28;20032;-56
2022/01/06 03:57:13;;;;;;;7.65;1.58;;;;;;;10.92;49.52;101473.88;5096868;28;20067;-56
2022/01/06 03:59:39;;;;;;;4.78;1.70;;;;;;;10.96;49.63;101474.50;5096663;28;20086;-57
2022/01/06 04:02:04;;;;;;;18.35;2.53;;;;;;;10.97;49.02;101470.88;5078587;28;20036;-55
2022/01/06 04:04:30;;;;;;;8.77;1.65;;;;;;;10.95;49.36;101481.69;5096390;28;20035;-55
2022/01/06 04:06:56;;;;;;;7.35;1.50;;;;;;;10.96;49.15;101475.38;5096265;28;20040;-57
2022/01/06 04:09:21;;;;;;;4.22;1.58;;;;;;;10.96;49.10;101486.09;5078974;28;20091;-55
2022/01/06 04:11:46;;;;;;;6.28;1.85;;;;;;;10.95;49.12;101479.00;5096737;28;20032;-55
2022/01/06 04:14:12;;;;;;;10.80;2.28;;;;;;;10.95;49.24;101473.66;5061481;28;20028;-56
2022/01/06 04:16:39;;;;;;;4.07;1.80;;;;;;;10.94;49.05;101488.00;5096241;28;20036;-56
2022/01/06 04:19:05;;;;;;;6.03;2.38;;;;;;;10.92;48.93;101489.09;5096597;28;20032;-56
2022/01/06 04:21:30;;;;;;;8.25;1.35;;;;;;;10.91;49.01;101488.25;5096339;28;20059;-57
2022/01/06 04:23:56;;;;;;;8.02;1.75;;;;;;;10.91;49.20;101488.25;5096250;28;20028;-56
2022/01/06 04:26:21;;;;;;;4.68;1.63;;;;;;;10.91;49.33;101495.44;5095827;28;20028;-55
2022/01/06 04:28:46;;;;;;;7.35;2.05;;;;;;;10.90;49.22;101491.91;5096414;28;20035;-55
2022/01/06 04:31:12;;;;;;;10.30;1.80;;;;;;;10.91;49.08;101504.34;5077963;28;20085;-56
2022/01/06 04:33:37;;;;;;;6.45;1.75;;;;;;;10.91;49.17;101501.66;5077926;28;20036;-56
2022/01/06 04:36:03;;;;;;;7.70;1.92;;;;;;;10.91;49.09;101501.66;5096042;28;20028;-57
2022/01/06 04:38:29;;;;;;;10.15;1.90;;;;;;;10.92;49.23;101513.22;5078101;28;20111;-55
2022/01/06 04:40:56;;;;;;;10.65;1.77;;;;;;;10.93;49.59;101509.56;5095690;28;20076;-55
2022/01/06 04:43:22;;;;;;;9.77;2.55;;;;;;;10.92;49.31;101508.72;5078198;28;20124;-56
2022/01/06 04:45:47;;;;;;;8.88;1.58;;;;;;;10.94;49.58;101517.50;5077825;28;20024;-55
2022/01/06 04:48:12;;;;;;;3.72;1.70;;;;;;;10.94;49.06;101520.16;5095493;28;20028;-56
2022/01/06 04:50:38;;;;;;;8.38;1.83;;;;;;;10.92;49.13;101524.78;5095551;28;20035;-57
2022/01/06 04:53:03;;;;;;;8.60;1.90;;;;;;;10.94;49.77;101528.22;5094505;28;20051;-56
2022/01/06 04:55:29;;;;;;;7.30;2.00;;;;;;;10.93;49.40;101526.53;5095591;28;20115;-56
2022/01/06 04:57:54;;;;;;;9.07;1.70;;;;;;;10.93;49.52;101533.69;5095231;28;20095;-55
2022/01/06 05:00:19;;;;;;;11.77;1.85;;;;;;;10.91;48.89;101533.81;5077367;28;20024;-56
2022/01/06 05:02:45;;;;;;;4.97;1.90;;;;;;;10.92;49.81;101534.66;5095285;28;20038;-55
2022/01/06 05:05:13;;;;;;;7.18;1.48;;;;;;;10.92;49.54;101538.19;5095361;28;20028;-55
2022/01/06 05:07:39;;;;;;;4.03;1.58;;;;;;;10.91;49.21;101541.00;5077780;28;20035;-56
2022/01/06 05:10:05;;;;;;;10.95;1.52;;;;;;;10.90;49.66;101548.19;5060777;28;20043;-56
2022/01/06 05:12:31;;;;;;;7.43;1.85;;;;;;;10.91;49.57;101547.22;5095316;28;20040;-56
2022/01/06 05:14:56;;;;;;;5.47;1.95;;;;;;;10.91;49.38;101541.88;5095302;28;20090;-56
2022/01/06 05:17:21;;;;;;;10.68;1.90;;;;;;;10.91;49.30;101546.38;5095289;28;20032;-56
2022/01/06 05:19:47;;;;;;;8.63;1.70;;;;;;;10.91;49.69;101547.22;5095264;28;20049;-55
2022/01/06 05:22:12;;;;;;;7.50;2.20;;;;;;;10.91;49.44;101551.72;5095120;28;20039;-56
2022/01/06 05:24:38;;;;;;;7.97;1.58;;;;;;;10.91;49.55;101557.09;5094875;28;20496;-56
2022/01/06 05:27:04;;;;;;;10.20;2.67;;;;;;;10.90;49.26;101545.50;5094868;28;20111;-56
2022/01/06 05:29:30;;;;;;;3.83;1.45;;;;;;;10.90;48.94;101566.94;5094782;28;20118;-56
2022/01/06 05:31:56;;;;;;;10.93;2.25;;;;;;;10.90;49.55;101572.31;5094776;28;20119;-55
2022/01/06 05:34:21;;;;;;;10.25;2.65;;;;;;;10.90;49.22;101558.91;5060136;28;20044;-56
2022/01/06 05:36:47;;;;;;;12.38;2.80;;;;;;;10.87;48.58;101551.09;5076893;28;20120;-55
2022/01/06 05:39:12;;;;;;;7.68;2.22;;;;;;;10.88;49.12;101552.81;5073087;28;20060;-55
2022/01/06 05:41:37;;;;;;;10.35;2.33;;;;;;;10.87;50.24;101542.19;5074113;28;20036;-56
2022/01/06 05:44:03;;;;;;;8.77;2.65;;;;;;;10.87;49.14;101559.13;5074468;28;20410;-56
2022/01/06 05:46:28;;;;;;;10.13;1.95;;;;;;;10.84;49.62;101561.16;5074645;28;20036;-55
2022/01/06 05:48:54;;;;;;;8.65;2.08;;;;;;;10.84;49.61;101567.41;5039774;28;20036;-56
2022/01/06 05:51:19;;;;;;;5.28;2.03;;;;;;;10.86;49.23;101573.50;5073342;28;20086;-55
2022/01/06 05:53:44;;;;;;;9.65;2.53;;;;;;;10.86;49.04;101575.34;5074310;28;20039;-55
2022/01/06 05:56:10;;;;;;;3.38;1.63;;;;;;;10.87;49.47;101572.53;5073145;28;20043;-55
2022/01/06 05:58:37;;;;;;;9.40;2.33;;;;;;;10.86;49.67;101576.16;5074425;28;20115;-57
2022/01/06 06:01:02;;;;;;;6.20;2.00;;;;;;;10.82;49.17;101565.81;5074271;28;20032;-56
2022/01/06 06:03:28;;;;;;;2.35;1.40;;;;;;;10.84;49.15;101577.25;5074216;28;20469;-56
2022/01/06 06:05:56;;;;;;;9.90;2.33;;;;;;;10.81;49.43;101578.34;5073160;28;20366;-56
2022/01/06 06:08:22;;;;;;;8.13;2.10;;;;;;;10.82;49.14;101576.50;5106135;28;20496;-56
2022/01/06 06:10:47;;;;;;;14.45;2.20;;;;;;;10.79;49.27;101579.41;5073834;28;20028;-56
2022/01/06 06:13:13;;;;;;;11.27;2.38;;;;;;;10.78;49.46;101583.91;5073794;28;20024;-55
2022/01/06 06:15:38;;;;;;;7.25;1.98;;;;;;;10.76;49.27;101580.50;5073897;28;20036;-56
2022/01/06 06:18:04;;;;;;;7.78;2.20;;;;;;;10.77;49.53;101584.03;5073806;28;20122;-56
2022/01/06 06:20:30;;;;;;;17.27;2.58;;;;;;;10.72;49.10;101578.16;5072606;28;20389;-56
2022/01/06 06:22:55;;;;;;;6.00;1.77;;;;;;;10.73;49.52;101596.81;5073887;28;20032;-56
2022/01/06 06:25:21;;;;;;;7.28;2.15;;;;;;;10.72;49.59;101592.41;5074029;28;20039;-56
2022/01/06 06:27:46;;;;;;;8.20;1.55;;;;;;;10.71;48.85;101589.84;5073651;28;20139;-54
2022/01/06 06:30:12;;;;;;;12.75;2.60;;;;;;;10.71;49.17;101593.38;5072486;28;20063;-56
2022/01/06 06:32:37;;;;;;;6.88;2.47;;;;;;;10.67;48.97;101594.56;5074047;28;20033;-55
2022/01/06 06:35:04;;;;;;;3.03;1.60;;;;;;;10.65;49.27;101593.81;5073778;28;20039;-56
2022/01/06 06:37:29;;;;;;;4.22;2.03;;;;;;;10.64;49.66;101601.97;5073724;28;20035;-57
2022/01/06 06:39:56;;;;;;;8.00;2.05;;;;;;;10.62;49.23;101607.44;5083373;28;20040;-56
2022/01/06 06:42:21;;;;;;;4.95;2.00;;;;;;;10.61;49.38;101613.75;5094008;28;20089;-56
2022/01/06 06:44:47;;;;;;;9.50;2.03;;;;;;;10.61;49.45;101615.59;5075962;28;20031;-56
2022/01/06 06:47:12;;;;;;;10.15;2.42;;;;;;;10.60;49.36;101616.56;5109948;28;20028;-55
2022/01/06 06:49:38;;;;;;;6.53;1.88;;;;;;;10.58;49.70;101619.31;5093860;28;20040;-56
2022/01/06 06:52:03;;;;;;;7.38;2.25;;;;;;;10.57;49.09;101616.78;5093935;28;20054;-56
2022/01/06 06:54:29;;;;;;;3.45;1.98;;;;;;;10.57;48.95;101624.81;5075370;28;20532;-55
2022/01/06 06:56:54;;;;;;;8.02;2.90;;;;;;;10.56;49.80;101634.66;5093665;28;20028;-56
2022/01/06 06:59:20;;;;;;;6.88;2.20;;;;;;;10.57;49.23;101631.03;5094061;28;20024;-57
2022/01/06 07:01:45;;;;;;;15.73;2.92;;;;;;;10.54;49.33;101639.28;5093650;28;20115;-56
2022/01/06 07:04:11;;;;;;;9.02;2.20;;;;;;;10.53;49.45;101642.91;5093684;28;20032;-55
2022/01/06 07:06:36;;;;;;;9.05;2.90;;;;;;;10.52;49.75;101635.88;5093776;28;20111;-55
2022/01/06 07:09:02;;;;;;;10.52;2.10;;;;;;;10.50;49.28;101643.13;5093623;28;20032;-56
2022/01/06 07:11:27;;;;;;;11.13;2.38;;;;;;;10.49;49.60;101644.13;5094072;28;20412;-56
2022/01/06 07:13:52;;;;;;;9.98;2.42;;;;;;;10.48;49.80;101645.06;5075595;28;20032;-56
2022/01/06 07:16:18;;;;;;;7.72;2.75;;;;;;;10.45;49.37;101659.53;5094251;28;20040;-56
2022/01/06 07:18:43;;;;;;;10.52;2.70;;;;;;;10.45;49.44;101658.66;5093547;28;20473;-56
2022/01/06 07:21:09;;;;;;;7.95;2.65;;;;;;;10.38;48.95;101662.75;5094690;28;20122;-55
2022/01/06 07:23:34;;;;;;;9.50;2.40;;;;;;;10.37;49.12;101661.91;5062679;28;20473;-55
2022/01/06 07:25:59;;;;;;;10.18;2.38;;;;;;;10.37;49.20;101672.59;5079755;28;20421;-56
2022/01/06 07:28:25;;;;;;;12.75;2.45;;;;;;;10.37;49.42;101679.78;5097628;28;20495;-55
2022/01/06 07:30:50;;;;;;;13.60;2.28;;;;;;;10.36;48.38;101678.06;5097434;28;20469;-56
2022/01/06 07:33:15;;;;;;;9.73;2.75;;;;;;;10.36;49.52;101678.06;5097456;28;20067;-56
2022/01/06 07:35:41;;;;;;;16.58;2.20;;;;;;;10.36;49.17;101688.75;5097438;28;20048;-57
2022/01/06 07:38:06;;;;;;;13.40;2.67;;;;;;;10.35;48.49;101689.75;5097145;28;20550;-55
2022/01/06 07:40:31;;;;;;;8.20;3.25;;;;;;;10.34;48.76;101688.03;5075688;28;20045;-56
2022/01/06 07:42:57;;;;;;;9.43;2.38;;;;;;;10.36;49.97;101700.34;5076698;28;20039;-56
2022/01/06 07:45:22;;;;;;;9.98;2.10;;;;;;;10.37;49.24;101695.84;5076845;28;20111;-56
2022/01/06 07:48:00;;;;;;;12.02;2.42;;;;;;;10.38;49.20;101695.75;5075284;28;20032;-56
2022/01/06 07:50:31;;;;;;;10.15;3.35;;;;;;;10.39;49.52;101699.25;5076547;28;20111;-56
2022/01/06 07:52:56;;;;;;;10.88;3.15;;;;;;;10.40;49.58;101701.00;5076629;28;20040;-56
2022/01/06 07:55:22;;;;;;;5.72;2.28;;;;;;;10.42;49.23;101699.06;5076486;28;20037;-57
2022/01/06 07:57:48;;;;;;;8.13;2.33;;;;;;;10.43;49.84;101700.78;5076463;28;20070;-56
2022/01/06 08:00:13;;;;;;;6.60;2.30;;;;;;;10.46;49.50;101711.28;5076448;28;20027;-57
2022/01/06 08:02:39;;;;;;;15.35;2.10;;;;;;;10.47;49.49;101715.66;5076501;28;20541;-56
2022/01/06 08:05:05;;;;;;;6.38;2.40;;;;;;;10.49;49.72;101716.44;5076312;28;20112;-56
2022/01/06 08:07:30;;;;;;;11.60;2.42;;;;;;;10.50;49.10;101719.00;5076035;28;20028;-56
2022/01/06 08:09:56;;;;;;;11.45;2.50;;;;;;;10.52;49.49;101721.56;5075881;28;20119;-56
2022/01/06 08:12:22;;;;;;;6.90;2.53;;;;;;;10.54;49.15;101719.63;5076402;28;20037;-56
2022/01/06 08:14:47;;;;;;;4.28;2.15;;;;;;;10.56;49.46;101717.69;5076093;28;20378;-56
2022/01/06 08:17:12;;;;;;;12.27;2.20;;;;;;;10.58;49.30;101721.13;5075884;28;20024;-56
2022/01/06 08:19:38;;;;;;;8.43;3.03;;;;;;;10.62;49.33;101719.97;5075919;28;20036;-56
2022/01/06 08:22:03;;;;;;;10.38;3.35;;;;;;;10.65;49.39;101717.06;5074860;28;20028;-55
2022/01/06 08:24:29;;;;;;;11.20;2.65;;;;;;;10.64;49.15;101715.34;5075751;28;20033;-55
2022/01/06 08:26:55;;;;;;;9.25;3.03;;;;;;;10.71;49.33;101722.00;5075560;28;20476;-56
2022/01/06 08:29:21;;;;;;;11.70;2.95;;;;;;;10.72;49.42;101718.34;5075711;28;20365;-56
2022/01/06 08:31:46;;;;;;;23.90;4.30;;;;;;;10.78;49.32;101723.25;5057060;28;20035;-56
2022/01/06 08:34:11;;;;;;;8.27;3.30;;;;;;;10.80;49.02;101728.53;5075933;28;20029;-57
2022/01/06 08:36:37;;;;;;;9.75;3.25;;;;;;;10.80;49.09;101721.34;5075267;28;20520;-56
2022/01/06 08:39:02;;;;;;;6.43;2.63;;;;;;;10.80;49.10;101724.03;5076788;28;20036;-56
2022/01/06 08:41:29;;;;;;;8.98;3.25;;;;;;;10.84;49.37;101730.88;5077991;28;20429;-56
2022/01/06 08:43:54;;;;;;;6.03;2.08;;;;;;;10.86;49.08;101731.63;5095669;28;20071;-55
2022/01/06 08:46:20;;;;;;;5.85;2.28;;;;;;;10.89;49.28;101736.75;5095663;28;20085;-56
2022/01/06 08:48:45;;;;;;;7.22;2.60;;;;;;;10.92;49.90;101741.03;5095575;28;20480;-56
2022/01/06 08:51:10;;;;;;;8.00;3.20;;;;;;;10.93;49.01;101748.13;5095676;28;20027;-56
2022/01/06 08:53:36;;;;;;;10.23;3.05;;;;;;;10.95;49.21;101747.06;5095946;28;20532;-57
2022/01/06 08:56:01;;;;;;;6.63;2.88;;;;;;;10.99;49.38;101747.69;5095704;28;20107;-57
2022/01/06 08:58:26;;;;;;;5.05;2.03;;;;;;;11.03;49.37;101738.44;5095667;28;20043;-57
2022/01/06 09:00:52;;;;;;;12.45;2.65;;;;;;;11.07;49.32;101740.81;5095506;28;20086;-57
2022/01/06 09:03:17;;;;;;;12.73;3.72;;;;;;;11.11;49.34;101736.06;5095623;28;20060;-57
2022/01/06 09:05:42;;;;;;;6.00;3.05;;;;;;;11.15;49.17;101734.03;5095763;28;20028;-56
2022/01/06 09:08:08;;;;;;;12.52;3.20;;;;;;;11.22;49.46;101738.88;5095177;28;20024;-57
2022/01/06 09:10:34;;;;;;;6.28;2.92;;;;;;;11.31;48.91;101742.69;5094923;28;20032;-56
2022/01/06 09:13:03;;;;;;;22.92;3.75;;;;;;;11.41;49.00;101744.59;5095251;28;20412;-56
2022/01/06 09:15:29;;;;;;;18.10;3.00;;;;;;;11.48;49.34;101745.00;5095186;28;20032;-55
2022/01/06 09:17:54;;;;;;;7.93;3.10;;;;;;;11.53;49.43;101748.22;5094565;28;20039;-59
2022/01/06 09:20:20;;;;;;;6.22;2.45;;;;;;;11.63;49.30;101751.94;5094626;28;20016;-59
2022/01/06 09:22:45;;;;;;;9.23;3.08;;;;;;;11.68;48.90;101758.66;5094695;28;20028;-58
2022/01/06 09:25:12;;;;;;;10.63;3.00;;;;;;;11.72;49.07;101759.34;5094830;28;20488;-56
2022/01/06 09:27:38;;;;;;;10.75;3.20;;;;;;;11.77;49.13;101756.31;5094880;28;20035;-58
2022/01/06 09:30:05;;;;;;;9.18;2.53;;;;;;;11.80;49.03;101759.63;5086157;28;20040;-59
2022/01/06 09:32:30;;;;;;;10.60;3.25;;;;;;;11.88;49.21;101759.91;5096867;28;20116;-56
2022/01/06 09:34:56;;;;;;;30.40;3.75;;;;;;;11.92;49.64;101756.00;5115113;28;20492;-59
2022/01/06 09:37:21;;;;;;;11.27;3.22;;;;;;;12.01;48.87;101760.69;5115076;28;20028;-59
2022/01/06 09:39:47;;;;;;;13.15;3.42;;;;;;;12.08;48.73;101767.31;5093848;28;20051;-58
2022/01/06 09:42:14;;;;;;;10.07;2.97;;;;;;;12.16;48.28;101759.53;5115037;28;20043;-57
2022/01/06 09:44:40;;;;;;;17.10;3.50;;;;;;;12.28;48.97;101763.97;5114059;28;20099;-59
2022/01/06 09:47:06;;;;;;;15.20;2.85;;;;;;;12.49;48.47;101760.59;5096706;28;20074;-59
2022/01/06 09:49:37;;;;;;;10.10;3.28;;;;;;;12.69;48.87;101767.97;5114891;28;20051;-59
2022/01/06 09:52:03;;;;;;;10.50;3.78;;;;;;;12.93;48.02;101765.19;5114832;28;20388;-58
2022/01/06 09:54:28;;;;;;;10.40;3.13;;;;;;;13.25;47.85;101774.28;5114646;28;20015;-58
2022/01/06 09:56:53;;;;;;;8.38;3.03;;;;;;;13.53;48.44;101775.59;5114908;28;20084;-57
2022/01/06 09:59:19;;;;;;;10.57;3.30;;;;;;;13.82;48.11;101771.34;5114595;28;20527;-58
2022/01/06 10:01:44;;;;;;;12.07;3.10;;;;;;;14.11;47.88;101767.09;5114536;28;20030;-59
2022/01/06 10:04:36;;;;;;;15.23;3.55;;;;;;;14.44;48.12;101780.44;5096369;28;20110;-59
2022/01/06 10:07:06;;;;;;;12.75;3.30;;;;;;;14.68;47.15;101785.59;5110590;28;20084;-58
2022/01/06 10:09:34;;;;;;;12.20;3.13;;;;;;;14.60;48.00;101776.44;5114683;28;20028;-58
2022/01/06 10:12:00;;;;;;;10.57;3.35;;;;;;;14.55;47.89;101777.69;5096213;28;20019;-58
2022/01/06 10:14:39;;;;;;;9.88;3.50;;;;;;;14.47;48.41;101776.63;5096461;28;20023;-58
2022/01/06 10:17:05;;;;;;;7.53;3.13;;;;;;;14.37;47.45;101773.88;5114479;28;20388;-58
2022/01/06 10:19:30;;;;;;;9.00;3.85;;;;;;;14.35;47.66;101775.81;5114518;28;20034;-58
2022/01/06 10:21:59;;;;;;;7.10;3.35;;;;;;;14.50;47.89;101774.53;5079527;28;20028;-57
2022/01/06 10:24:28;;;;;;;11.25;3.20;;;;;;;14.45;48.24;101775.91;5080074;28;20035;-58
2022/01/06 10:26:57;;;;;;;8.80;3.63;;;;;;;14.64;46.61;101777.88;5095819;28;20031;-58
2022/01/06 10:29:25;;;;;;;9.57;3.80;;;;;;;15.22;47.25;101779.03;5096373;28;20046;-58
2022/01/06 10:31:51;;;;;;;11.73;2.97;;;;;;;15.66;45.50;101776.78;5096167;28;20031;-57
2022/01/06 10:34:16;;;;;;;5.28;3.10;;;;;;;15.96;45.60;101775.88;5096351;28;20111;-59
2022/01/06 10:36:42;;;;;;;6.95;3.13;;;;;;;16.25;46.10;101767.75;5114313;28;20094;-58
2022/01/06 10:39:08;;;;;;;10.85;3.20;;;;;;;16.10;46.62;101778.16;5114133;28;20023;-57
2022/01/06 10:41:36;;;;;;;10.18;3.13;;;;;;;15.98;45.80;101763.06;5114286;28;20116;-58
2022/01/06 10:44:02;;;;;;;19.20;4.05;;;;;;;16.00;45.93;101768.31;5114377;28;20038;-58
2022/01/06 10:46:28;;;;;;;8.07;3.28;;;;;;;15.92;45.71;101768.16;5095843;28;20103;-59
2022/01/06 10:49:02;;;;;;;12.35;4.03;;;;;;;16.51;45.12;101768.03;5114495;28;20017;-58
2022/01/06 10:51:42;;;;;;;9.75;3.17;;;;;;;16.84;44.55;101754.88;5114466;28;20024;-58
2022/01/06 10:54:23;;;;;;;8.35;3.63;;;;;;;17.22;44.44;101755.75;5095891;28;20020;-58
2022/01/06 10:56:59;;;;;;;9.35;3.13;;;;;;;17.51;44.91;101758.28;5118054;28;20049;-57
2022/01/06 10:59:29;;;;;;;9.50;3.47;;;;;;;17.71;45.08;101755.34;5118529;28;20387;-58
2022/01/06 11:01:55;;;;;;;16.23;3.72;;;;;;;17.92;43.67;101747.78;5118220;28;20034;-58
2022/01/06 11:04:21;;;;;;;12.45;3.70;;;;;;;18.11;43.79;101741.38;5118171;28;20091;-58
2022/01/06 11:06:47;;;;;;;13.45;3.95;;;;;;;18.28;43.72;101732.38;5099887;28;20107;-58
2022/01/06 11:09:12;;;;;;;8.63;3.13;;;;;;;18.46;43.36;101732.31;5100255;28;20026;-58
2022/01/06 11:14:23;;;;;;;6.25;2.83;;;;;;;18.81;43.39;101734.13;5118364;28;20035;-58
2022/01/06 11:16:49;;;;;;;13.93;3.25;;;;;;;18.92;43.10;101732.00;5100055;28;20028;-58
2022/01/06 11:19:14;;;;;;;7.90;2.70;;;;;;;19.05;42.68;101735.13;5118449;28;20050;-58
2022/01/06 11:21:42;;;;;;;11.35;3.20;;;;;;;19.13;42.89;101735.16;5100147;28;20024;-58
2022/01/06 11:24:16;;;;;;;12.80;3.42;;;;;;;19.22;42.59;101738.75;5118388;28;20541;-58
2022/01/06 11:26:43;;;;;;;14.70;3.22;;;;;;;19.34;42.58;101733.91;5118507;28;20023;-58
2022/01/06 11:29:08;;;;;;;13.20;4.55;;;;;;;19.40;42.40;101738.72;5100167;28;20038;-58